Atwood, Illinois
Current Conditions -  °F | °C
As of 1:53 AM on Sunday 26 Oct 2014 (Local Time) from KCMI Reporting Station
Clear Clear  
Wind Chill:   Ceiling: Unl
Heat Index:   Visibility: 10mi
Dew Point:   Wind: 5mph
Humidity: 80%   Direction: 320°NW
Pressure: 30.02"   Gusts: NA
Location:  39.8°N, 88.46°W
Report Text: KCMI 260653Z AUTO 32004KT 10SM CLR 07/04 A3002 RMK AO2 SLP165 T00720039 $
Loading
Personal Weather Stations






























Interactive Weather Map
Tropical Storm Tracking
New forecast layout! Learn more

10-Day Weather Forecast

Advertisements
Track Severe Weather on mobile